Time;durP1;ratioP1;P1;durP2;ratioP2;P2;SDS_P1;SDS_P2;PMS_P1;PMS_P2;Temp;Humidity;BMP_temperature;BMP_pressure;BME280_temperature;BME280_humidity;BME280_pressure;Samples;Min_cycle;Max_cycle;Signal;HPM_P1;HPM_P2
2021/11/01 00:04:03;;;;;;;47.47;20.15;;;;;;;3.72;100.00;94867.03;10469003;28;20143;-71
2021/11/01 00:09:04;;;;;;;48.45;22.10;;;;;;;3.66;100.00;94869.81;10467806;28;20140;-71
2021/11/01 00:14:04;;;;;;;44.35;18.95;;;;;;;3.58;100.00;94878.91;10484803;28;20115;-71
2021/11/01 00:19:05;;;;;;;41.83;20.58;;;;;;;3.46;100.00;94881.53;10467100;28;20058;-70
2021/11/01 00:24:05;;;;;;;48.10;20.80;;;;;;;3.54;100.00;94875.88;10462263;28;20503;-70
2021/11/01 00:29:06;;;;;;;37.40;19.02;;;;;;;3.52;100.00;94870.00;10459799;28;20024;-73
2021/11/01 00:34:07;;;;;;;37.03;18.23;;;;;;;3.34;100.00;94872.69;10467067;28;20075;-70
2021/11/01 00:39:08;;;;;;;46.67;19.67;;;;;;;3.08;100.00;94866.66;10485051;28;20452;-75
2021/11/01 00:44:08;;;;;;;37.22;17.85;;;;;;;3.12;100.00;94867.84;10483877;28;20020;-70
2021/11/01 00:49:09;;;;;;;40.13;21.23;;;;;;;3.22;100.00;94856.69;10483118;28;20458;-71
2021/11/01 00:54:12;;;;;;;40.42;19.73;;;;;;;3.35;100.00;94851.22;10483595;28;20028;-71
2021/11/01 00:59:12;;;;;;;36.35;19.33;;;;;;;3.29;100.00;94846.00;10466573;28;20447;-75
2021/11/01 01:04:14;;;;;;;41.22;20.00;;;;;;;3.23;100.00;94829.91;10469489;28;20033;-71
2021/11/01 01:09:15;;;;;;;41.30;18.92;;;;;;;3.20;100.00;94819.75;10465537;28;20028;-71
2021/11/01 01:14:17;;;;;;;40.08;19.85;;;;;;;3.09;100.00;94825.81;10448854;28;20017;-74
2021/11/01 01:19:22;;;;;;;47.88;22.58;;;;;;;3.10;100.00;94808.03;10463821;28;20024;-70
2021/11/01 01:24:22;;;;;;;44.15;20.60;;;;;;;3.00;100.00;94814.69;10465375;28;20033;-71
2021/11/01 01:29:23;;;;;;;41.63;20.73;;;;;;;2.91;100.00;94811.50;10465859;28;20750;-76
2021/11/01 01:34:24;;;;;;;44.15;19.55;;;;;;;2.96;100.00;94804.72;10464861;28;20275;-74
2021/11/01 01:39:25;;;;;;;41.67;19.23;;;;;;;2.90;100.00;94790.50;10451921;28;20414;-72
2021/11/01 01:44:26;;;;;;;43.40;20.73;;;;;;;2.93;100.00;94798.03;10463993;28;20016;-71
2021/11/01 01:49:26;;;;;;;48.50;23.73;;;;;;;2.95;100.00;94782.69;10481766;28;20024;-70
2021/11/01 01:54:27;;;;;;;46.63;20.52;;;;;;;2.74;100.00;94781.31;10482605;28;20020;-70
2021/11/01 01:59:29;;;;;;;55.88;22.77;;;;;;;2.71;100.00;94784.44;10464196;28;20079;-71
2021/11/01 02:04:29;;;;;;;56.50;25.42;;;;;;;2.74;100.00;94774.16;10443850;28;20032;-74
2021/11/01 02:09:47;;;;;;;50.55;22.67;;;;;;;2.78;100.00;94777.19;10476649;28;20037;-73
2021/11/01 02:14:53;;;;;;;45.88;22.83;;;;;;;2.78;100.00;94784.31;10481400;28;20024;-70
2021/11/01 02:20:00;;;;;;;43.20;18.63;;;;;;;2.76;100.00;94773.94;10475205;28;20529;-71
2021/11/01 02:25:15;;;;;;;46.22;19.73;;;;;;;2.75;100.00;94777.66;10448824;28;20387;-70
2021/11/01 02:30:15;;;;;;;44.42;19.05;;;;;;;2.72;100.00;94770.94;10406139;28;20608;-70
2021/11/01 02:35:16;;;;;;;47.33;21.00;;;;;;;2.72;100.00;94781.53;10430139;28;20124;-71
2021/11/01 02:40:16;;;;;;;43.30;21.67;;;;;;;2.72;100.00;94781.53;10430435;28;20032;-70
2021/11/01 02:45:17;;;;;;;47.60;22.35;;;;;;;2.74;100.00;94781.31;10413443;28;20506;-69
2021/11/01 02:50:19;;;;;;;48.38;21.52;;;;;;;2.70;100.00;94774.84;10447342;28;20484;-70
2021/11/01 02:55:21;;;;;;;41.30;19.25;;;;;;;2.52;100.00;94775.66;10455436;28;20032;-71
2021/11/01 03:00:25;;;;;;;52.47;19.42;;;;;;;2.42;100.00;94773.53;10471586;28;20603;-70
2021/11/01 03:05:30;;;;;;;51.60;19.00;;;;;;;2.27;100.00;94775.72;10470792;28;20060;-74
2021/11/01 03:10:31;;;;;;;46.10;19.75;;;;;;;2.08;100.00;94778.38;10470165;28;20037;-74
2021/11/01 03:15:33;;;;;;;42.75;19.23;;;;;;;2.11;100.00;94769.97;10470054;28;20505;-70
2021/11/01 03:20:53;;;;;;;44.80;16.63;;;;;;;2.08;100.00;94767.75;10464421;28;20379;-75
2021/11/01 03:26:00;;;;;;;48.13;19.42;;;;;;;2.15;100.00;94767.66;10475922;28;20564;-71
2021/11/01 03:31:05;;;;;;;36.97;17.02;;;;;;;2.12;100.00;94762.81;10430502;28;20036;-71
2021/11/01 03:36:07;;;;;;;43.33;19.23;;;;;;;2.16;100.00;94767.47;10435016;28;20280;-75
2021/11/01 03:41:10;;;;;;;33.30;17.00;;;;;;;2.21;100.00;94761.50;10428033;28;20491;-70
2021/11/01 03:46:12;;;;;;;46.10;19.65;;;;;;;2.25;100.00;94756.56;10427087;28;20102;-73
2021/11/01 03:51:26;;;;;;;48.65;16.75;;;;;;;2.35;100.00;94759.53;10427347;28;20107;-74
2021/11/01 03:56:28;;;;;;;45.05;20.15;;;;;;;2.37;100.00;94760.09;10427072;28;20487;-70
2021/11/01 04:01:28;;;;;;;36.65;19.65;;;;;;;2.33;100.00;94750.97;10432341;28;20114;-73
2021/11/01 04:06:29;;;;;;;41.05;17.60;;;;;;;2.30;100.00;94744.28;10455057;28;20135;-70
2021/11/01 04:11:29;;;;;;;41.42;19.42;;;;;;;2.29;100.00;94742.66;10487033;28;20036;-75
2021/11/01 04:16:39;;;;;;;37.92;18.55;;;;;;;2.27;100.00;94743.91;10469681;28;20024;-70
2021/11/01 04:21:41;;;;;;;37.45;16.50;;;;;;;2.20;100.00;94734.16;10471231;28;20050;-70
2021/11/01 04:26:43;;;;;;;39.55;20.17;;;;;;;2.13;100.00;94733.44;10487325;28;20071;-70
2021/11/01 04:31:49;;;;;;;41.67;18.50;;;;;;;2.16;100.00;94727.72;10487348;28;20037;-69
2021/11/01 04:36:52;;;;;;;48.65;20.35;;;;;;;2.14;100.00;94724.44;10487870;28;20021;-76
2021/11/01 04:42:12;;;;;;;49.42;20.42;;;;;;;2.21;100.00;94727.03;10472878;28;20111;-75
2021/11/01 04:57:50;;;;;;;43.38;19.70;;;;;;;2.28;100.00;94727.78;10469707;28;20036;-76
2021/11/01 05:03:02;;;;;;;45.13;20.73;;;;;;;2.28;100.00;94722.47;10467265;28;20516;-72
2021/11/01 05:08:04;;;;;;;49.22;20.33;;;;;;;2.35;100.00;94722.41;10442052;28;20059;-72
2021/11/01 05:13:18;;;;;;;41.65;20.13;;;;;;;2.39;100.00;94729.69;10455707;28;20040;-70
2021/11/01 05:18:26;;;;;;;50.58;21.98;;;;;;;2.41;100.00;94729.44;10456457;28;20400;-73
2021/11/01 05:38:49;;;;;;;;;;;;;;;2.85;100.00;94732.78;10441104;28;20291;-71
2021/11/01 05:43:49;;;;;;;64.35;31.02;;;;;;;2.96;100.00;94738.34;10397772;28;19917;-71
2021/11/01 05:48:54;;;;;;;59.95;27.65;;;;;;;2.93;100.00;94739.66;10400027;28;20481;-71
2021/11/01 05:53:57;;;;;;;53.75;25.67;;;;;;;3.11;100.00;94730.78;10411923;28;20037;-72
2021/11/01 06:09:59;;;;;;;64.27;27.23;;;;;;;3.41;100.00;94743.25;10480789;28;19912;-72
2021/11/01 06:14:59;;;;;;;51.53;24.90;;;;;;;3.55;100.00;94743.84;10478655;28;20298;-71
2021/11/01 06:20:00;;;;;;;57.83;25.85;;;;;;;3.64;100.00;94753.09;10463324;28;20032;-70
2021/11/01 06:25:07;;;;;;;55.92;26.83;;;;;;;3.80;100.00;94746.31;10463211;28;20490;-70
2021/11/01 06:51:50;;;;;;;65.05;26.15;;;;;;;5.75;100.00;94733.31;10477690;28;20044;-73
2021/11/01 09:29:49;;;;;;;29.30;12.05;;;;;;;20.79;44.41;94606.69;10481468;28;20036;-70
2021/11/01 09:45:32;;;;;;;18.55;10.27;;;;;;;23.31;36.18;94572.41;10440669;28;20032;-71
2021/11/01 09:50:35;;;;;;;20.85;10.88;;;;;;;22.52;37.89;94565.09;10438418;28;20028;-74
2021/11/01 10:00:40;;;;;;;19.35;9.70;;;;;;;24.07;34.34;94543.75;10460668;28;20039;-70
2021/11/01 10:05:52;;;;;;;19.67;10.02;;;;;;;25.74;33.53;94531.34;10461804;28;20059;-73
2021/11/01 10:10:53;;;;;;;18.67;9.77;;;;;;;26.90;31.99;94527.72;10461724;28;20029;-72
2021/11/01 10:21:18;;;;;;;57.17;49.35;;;;;;;26.60;31.96;94515.66;10442981;28;20104;-71
2021/11/01 10:26:21;;;;;;;22.05;11.35;;;;;;;27.07;31.21;94504.19;10503420;28;20549;-69
2021/11/01 10:31:25;;;;;;;27.23;11.77;;;;;;;27.43;31.38;94493.38;10503742;28;20024;-69
2021/11/01 10:36:32;;;;;;;23.00;11.90;;;;;;;27.62;30.21;94482.00;10503630;28;20057;-69
2021/11/01 10:41:55;;;;;;;;;;;;;;;27.08;30.01;94478.97;10478651;28;20024;-70
2021/11/01 10:47:48;;;;;;;24.08;10.48;;;;;;;28.40;29.03;94465.97;10437014;28;19925;-73
2021/11/01 11:14:21;;;;;;;23.20;12.00;;;;;;;29.15;28.50;94423.59;10444824;28;20037;-74
2021/11/01 11:20:25;;;;;;;18.08;10.20;;;;;;;29.24;27.85;94422.41;10444479;28;20025;-73
2021/11/01 11:31:35;;;;;;;24.02;12.10;;;;;;;26.04;31.35;94417.63;10356687;28;20544;-72
2021/11/01 11:52:24;;;;;;;32.05;14.00;;;;;;;17.32;50.39;94410.59;10491444;28;20032;-69
2021/11/01 11:57:30;;;;;;;57.10;38.63;;;;;;;16.06;58.24;94410.44;10431982;28;20435;-72
2021/11/01 12:02:39;;;;;;;30.88;12.93;;;;;;;15.61;66.29;94405.19;10409710;28;20617;-75
2021/11/01 12:08:03;;;;;;;31.05;13.60;;;;;;;15.27;66.71;94403.94;10425111;28;20041;-69
2021/11/01 12:13:13;;;;;;;35.30;14.25;;;;;;;15.25;71.35;94398.00;10439076;28;20400;-71
2021/11/01 12:18:25;;;;;;;29.35;13.23;;;;;;;15.21;72.33;94390.53;10452547;28;20486;-75
2021/11/01 12:23:42;;;;;;;56.22;40.42;;;;;;;15.22;69.35;94380.47;10462056;28;20111;-76
2021/11/01 12:28:44;;;;;;;32.45;13.32;;;;;;;14.82;72.30;94377.72;10463238;28;20020;-76
2021/11/01 12:33:55;;;;;;;28.38;12.27;;;;;;;14.81;74.54;94370.72;10446436;28;20112;-76
2021/11/01 12:39:11;;;;;;;30.05;13.70;;;;;;;14.58;79.82;94376.09;10481452;28;20028;-75
2021/11/01 12:59:56;;;;;;;28.52;12.05;;;;;;;14.43;81.63;94352.09;10441391;28;20107;-69
2021/11/01 13:05:01;;;;;;;36.05;13.15;;;;;;;14.41;82.38;94352.41;10406996;28;20045;-71
2021/11/01 13:10:12;;;;;;;34.15;13.23;;;;;;;14.32;81.17;94348.88;10436411;28;20040;-76
2021/11/01 13:20:36;;;;;;;28.38;13.27;;;;;;;14.08;85.96;94336.44;10470868;28;20036;-74
2021/11/01 13:26:15;;;;;;;32.35;14.95;;;;;;;14.07;86.61;94342.94;10453199;28;20112;-74
2021/11/01 13:36:41;;;;;;;29.48;12.77;;;;;;;13.85;86.19;94336.38;10440484;28;20646;-70
2021/11/01 13:41:47;;;;;;;28.88;13.20;;;;;;;13.62;85.70;94332.03;10439289;28;20059;-72
2021/11/01 13:46:55;;;;;;;26.40;11.25;;;;;;;13.66;85.48;94325.72;10450208;28;20024;-72
2021/11/01 13:52:37;;;;;;;25.40;11.30;;;;;;;13.47;84.43;94320.44;10405328;28;20032;-70
2021/11/01 13:58:03;;;;;;;25.90;11.77;;;;;;;13.43;84.77;94324.03;10422277;28;20025;-74
2021/11/01 14:19:00;;;;;;;22.92;11.57;;;;;;;13.40;86.63;94320.03;10438724;28;20029;-70
2021/11/01 14:34:38;;;;;;;26.07;12.80;;;;;;;13.15;80.87;94321.31;10474653;28;20120;-71
2021/11/01 16:19:07;;;;;;;41.17;18.98;;;;;;;10.08;100.00;94307.81;10444005;28;20415;-68
2021/11/01 16:24:12;;;;;;;49.75;21.13;;;;;;;9.95;100.00;94305.78;10475610;28;20024;-71
2021/11/01 16:29:17;;;;;;;48.70;19.65;;;;;;;9.83;100.00;94313.38;10441416;28;20037;-73
2021/11/01 16:34:26;;;;;;;55.75;21.38;;;;;;;9.69;100.00;94313.97;10441878;28;20426;-73
2021/11/01 16:39:31;;;;;;;62.47;25.58;;;;;;;9.45;100.00;94313.84;10457001;28;20032;-70
2021/11/01 16:44:42;;;;;;;72.70;28.65;;;;;;;9.37;100.00;94309.06;10431681;28;20059;-70
2021/11/01 16:49:43;;;;;;;89.07;29.88;;;;;;;9.15;100.00;94314.78;10482328;28;20519;-71
2021/11/01 16:54:54;;;;;;;89.50;29.60;;;;;;;9.28;100.00;94314.22;10465535;28;20052;-71
2021/11/01 18:55:54;;;;;;;38.40;17.23;;;;;;;7.08;100.00;94386.09;10438586;28;20148;-71
2021/11/01 19:00:58;;;;;;;42.22;18.45;;;;;;;7.05;100.00;94386.63;10437308;28;20036;-72
2021/11/01 20:04:33;;;;;;;52.67;24.20;;;;;;;6.15;100.00;94416.69;10527350;28;20569;-74
2021/11/01 21:29:44;;;;;;;53.03;23.40;;;;;;;4.81;100.00;94366.38;10523280;28;20036;-69
2021/11/01 21:34:56;;;;;;;55.20;26.35;;;;;;;4.56;100.00;94356.97;10503072;28;20031;-75
2021/11/01 21:39:59;;;;;;;52.13;26.00;;;;;;;4.52;100.00;94351.34;10505861;28;20100;-74
2021/11/01 21:45:00;;;;;;;59.50;24.25;;;;;;;4.61;100.00;94359.72;10505167;28;20489;-70
2021/11/01 21:50:03;;;;;;;54.38;24.83;;;;;;;4.29;100.00;94360.31;10506191;28;20016;-74
2021/11/01 21:55:07;;;;;;;63.00;22.05;;;;;;;4.26;100.00;94343.00;10431319;28;20435;-71
2021/11/01 22:20:53;;;;;;;;;;;;;;;4.53;100.00;94312.25;10441283;28;20312;-70
2021/11/01 22:26:23;;;;;;;45.80;21.27;;;;;;;4.79;100.00;94308.06;10438596;28;20371;-70
2021/11/01 22:42:14;;;;;;;54.05;24.02;;;;;;;4.90;100.00;94293.81;10480114;28;20032;-71
2021/11/01 22:57:43;;;;;;;57.45;22.52;;;;;;;4.64;100.00;94287.38;10489062;28;20032;-71
2021/11/01 23:02:46;;;;;;;48.88;22.13;;;;;;;4.64;100.00;94274.06;10471232;28;20024;-70
2021/11/01 23:34:21;;;;;;;44.75;19.38;;;;;;;4.59;100.00;94250.84;10488154;28;20033;-74
2021/11/01 23:39:21;;;;;;;50.67;21.30;;;;;;;4.48;100.00;94237.66;10486319;28;20032;-70
2021/11/01 23:44:22;;;;;;;46.58;21.15;;;;;;;4.41;100.00;94227.19;10502767;28;20027;-71
2021/11/01 23:49:22;;;;;;;49.50;19.80;;;;;;;4.31;100.00;94232.38;10462182;28;20025;-73
2021/11/01 23:54:26;;;;;;;49.25;21.20;;;;;;;4.21;100.00;94233.06;10431736;28;20041;-69
2021/11/01 23:59:26;;;;;;;43.47;19.95;;;;;;;4.23;100.00;94244.28;10401489;28;20103;-69
